Time;durP1;ratioP1;P1;durP2;ratioP2;P2;SDS_P1;SDS_P2;PMS_P1;PMS_P2;Temp;Humidity;BMP_temperature;BMP_pressure;BME280_temperature;BME280_humidity;BME280_pressure;Samples;Min_cycle;Max_cycle;Signal;HPM_P1;HPM_P2
2022/03/08 00:00:55;;;;;;;19.83;12.57;;;;;;;;;;6092238;23;20018;-48
2022/03/08 00:03:20;;;;;;;26.88;12.82;;;;;;;;;;6091116;23;20022;-47
2022/03/08 00:05:46;;;;;;;23.95;13.82;;;;;;;;;;6092535;23;20025;-46
2022/03/08 00:08:12;;;;;;;23.77;14.30;;;;;;;;;;6089597;23;20071;-47
2022/03/08 00:10:37;;;;;;;27.27;15.10;;;;;;;;;;6066727;23;20059;-47
2022/03/08 00:13:02;;;;;;;23.75;14.13;;;;;;;;;;6090105;23;20021;-48
2022/03/08 00:15:28;;;;;;;21.25;14.43;;;;;;;;;;6091973;23;20026;-46
2022/03/08 00:17:53;;;;;;;29.13;13.93;;;;;;;;;;6089976;23;20384;-47
2022/03/08 00:20:19;;;;;;;23.92;13.68;;;;;;;;;;6091025;23;20015;-45
2022/03/08 00:22:45;;;;;;;26.05;15.18;;;;;;;;;;6090011;23;20066;-50
2022/03/08 00:25:11;;;;;;;25.33;15.45;;;;;;;;;;6093232;23;20022;-49
2022/03/08 00:27:37;;;;;;;29.92;14.45;;;;;;;;;;6092934;23;20002;-46
2022/03/08 00:30:03;;;;;;;25.02;14.43;;;;;;;;;;6094905;23;20029;-49
2022/03/08 00:32:28;;;;;;;23.92;14.18;;;;;;;;;;6092579;23;20034;-47
2022/03/08 00:34:53;;;;;;;26.33;14.23;;;;;;;;;;6095816;23;20027;-47
2022/03/08 00:37:19;;;;;;;23.10;13.82;;;;;;;;;;6093891;23;20018;-47
2022/03/08 00:39:45;;;;;;;24.92;13.45;;;;;;;;;;6071931;23;20106;-47
2022/03/08 00:42:12;;;;;;;22.58;13.80;;;;;;;;;;6092152;23;20015;-49
2022/03/08 00:44:43;;;;;;;24.05;13.38;;;;;;;;;;6096099;23;20014;-45
2022/03/08 00:47:09;;;;;;;22.50;13.40;;;;;;;;;;6067626;23;20070;-47
2022/03/08 00:49:35;;;;;;;26.10;14.20;;;;;;;;;;6096243;23;20005;-45
2022/03/08 00:52:00;;;;;;;22.05;14.68;;;;;;;;;;6092931;23;20018;-45
2022/03/08 00:54:25;;;;;;;23.23;13.38;;;;;;;;;;6094224;23;20018;-45
2022/03/08 00:56:51;;;;;;;25.35;14.93;;;;;;;;;;6094382;23;20015;-49
2022/03/08 00:59:16;;;;;;;23.05;13.55;;;;;;;;;;6097369;23;20554;-46
2022/03/08 01:01:41;;;;;;;24.75;14.48;;;;;;;;;;6095829;23;20046;-46
2022/03/08 01:04:07;;;;;;;26.83;13.52;;;;;;;;;;6096349;23;20037;-48
2022/03/08 01:06:32;;;;;;;22.27;13.15;;;;;;;;;;6093489;23;20019;-47
2022/03/08 01:08:58;;;;;;;23.75;13.57;;;;;;;;;;6095871;23;20081;-46
2022/03/08 01:11:23;;;;;;;31.92;14.57;;;;;;;;;;6093312;23;20046;-46
2022/03/08 01:13:48;;;;;;;28.75;14.40;;;;;;;;;;6096758;23;20010;-46
2022/03/08 01:16:13;;;;;;;26.38;15.20;;;;;;;;;;6093110;23;20026;-47
2022/03/08 01:18:39;;;;;;;21.67;14.68;;;;;;;;;;6096442;23;20022;-44
2022/03/08 01:21:04;;;;;;;24.88;14.38;;;;;;;;;;6094317;23;20022;-46
2022/03/08 01:23:29;;;;;;;26.48;15.02;;;;;;;;;;6096030;23;20066;-45
2022/03/08 01:25:55;;;;;;;27.65;14.27;;;;;;;;;;6095058;23;20018;-47
2022/03/08 01:28:20;;;;;;;29.58;16.02;;;;;;;;;;6095992;23;20018;-50
2022/03/08 01:30:46;;;;;;;25.65;14.95;;;;;;;;;;6078865;23;20030;-48
2022/03/08 01:33:11;;;;;;;24.65;14.02;;;;;;;;;;6066653;23;20079;-49
2022/03/08 01:35:36;;;;;;;29.65;14.77;;;;;;;;;;6065778;23;20022;-46
2022/03/08 01:38:02;;;;;;;21.73;13.60;;;;;;;;;;6067617;23;20011;-48
2022/03/08 01:40:27;;;;;;;22.05;13.13;;;;;;;;;;6038794;23;20134;-48
2022/03/08 01:42:52;;;;;;;30.75;15.35;;;;;;;;;;6067825;23;20011;-45
2022/03/08 01:45:19;;;;;;;28.10;14.07;;;;;;;;;;6064794;23;20023;-47
2022/03/08 01:47:45;;;;;;;24.88;14.70;;;;;;;;;;6067863;23;20011;-48
2022/03/08 01:50:11;;;;;;;23.33;13.75;;;;;;;;;;6065532;23;20217;-47
2022/03/08 01:52:38;;;;;;;22.80;13.55;;;;;;;;;;6042554;23;20021;-46
2022/03/08 01:55:04;;;;;;;26.17;12.88;;;;;;;;;;6064894;23;20074;-47
2022/03/08 01:57:30;;;;;;;31.10;15.52;;;;;;;;;;6066034;23;20022;-47
2022/03/08 01:59:55;;;;;;;20.48;11.88;;;;;;;;;;6066085;23;20523;-49
2022/03/08 02:02:20;;;;;;;22.02;13.52;;;;;;;;;;6067045;23;20031;-46
2022/03/08 02:04:46;;;;;;;21.50;14.10;;;;;;;;;;6065743;23;20025;-48
2022/03/08 02:07:11;;;;;;;26.00;13.75;;;;;;;;;;6066087;23;20018;-47
2022/03/08 02:09:37;;;;;;;23.38;13.55;;;;;;;;;;6064316;23;20011;-47
2022/03/08 02:12:02;;;;;;;26.70;15.18;;;;;;;;;;6066039;23;20035;-45
2022/03/08 02:14:27;;;;;;;22.15;13.30;;;;;;;;;;6065781;23;20031;-47
2022/03/08 02:16:53;;;;;;;22.52;13.18;;;;;;;;;;6066401;23;20026;-47
2022/03/08 02:19:18;;;;;;;24.13;12.88;;;;;;;;;;6064810;23;20019;-49
2022/03/08 02:21:43;;;;;;;27.25;14.50;;;;;;;;;;6041888;23;20086;-46
2022/03/08 02:24:09;;;;;;;23.73;14.20;;;;;;;;;;6066210;23;20181;-46
2022/03/08 02:26:35;;;;;;;26.00;13.38;;;;;;;;;;6065638;23;20035;-45
2022/03/08 02:29:03;;;;;;;35.00;14.77;;;;;;;;;;6065109;23;20019;-47
2022/03/08 02:31:28;;;;;;;26.35;14.50;;;;;;;;;;6089786;23;20029;-47
2022/03/08 02:33:53;;;;;;;25.52;13.88;;;;;;;;;;6094160;23;20018;-46
2022/03/08 02:36:19;;;;;;;27.42;13.50;;;;;;;;;;6095620;23;20018;-46
2022/03/08 02:38:44;;;;;;;27.17;14.00;;;;;;;;;;6095035;23;20030;-46
2022/03/08 02:41:09;;;;;;;24.13;15.45;;;;;;;;;;6095912;23;20022;-47
2022/03/08 02:43:34;;;;;;;33.90;15.38;;;;;;;;;;6087847;23;20013;-48
2022/03/08 02:46:00;;;;;;;25.23;14.45;;;;;;;;;;6095565;23;20014;-45
2022/03/08 02:48:25;;;;;;;27.90;15.73;;;;;;;;;;6094204;23;20483;-46
2022/03/08 02:50:51;;;;;;;27.92;15.52;;;;;;;;;;6091965;23;20007;-46
2022/03/08 02:53:16;;;;;;;28.13;15.93;;;;;;;;;;6094252;23;20045;-49
2022/03/08 02:55:41;;;;;;;24.23;14.13;;;;;;;;;;6069426;23;20030;-46
2022/03/08 02:58:07;;;;;;;40.15;16.45;;;;;;;;;;6095193;23;20023;-47
2022/03/08 03:00:33;;;;;;;26.10;14.98;;;;;;;;;;6094001;23;20030;-45
2022/03/08 03:02:58;;;;;;;36.85;14.20;;;;;;;;;;6092814;23;20042;-46
2022/03/08 03:05:23;;;;;;;27.33;14.75;;;;;;;;;;6094110;23;20042;-45
2022/03/08 03:07:49;;;;;;;24.13;15.55;;;;;;;;;;6095256;23;20018;-49
2022/03/08 03:10:15;;;;;;;25.73;16.88;;;;;;;;;;6092385;23;20022;-48
2022/03/08 03:12:41;;;;;;;27.55;15.50;;;;;;;;;;6096120;23;20058;-46
2022/03/08 03:15:07;;;;;;;34.90;14.88;;;;;;;;;;6091704;23;20025;-47
2022/03/08 03:17:33;;;;;;;25.63;15.32;;;;;;;;;;6095508;23;20025;-46
2022/03/08 03:19:58;;;;;;;31.70;15.85;;;;;;;;;;6094085;23;20014;-47
2022/03/08 03:22:23;;;;;;;29.65;15.10;;;;;;;;;;6094126;23;20018;-48
2022/03/08 03:24:48;;;;;;;31.15;15.02;;;;;;;;;;6094937;23;20015;-46
2022/03/08 03:27:14;;;;;;;31.90;15.57;;;;;;;;;;6095048;23;20053;-46
2022/03/08 03:29:39;;;;;;;26.25;14.30;;;;;;;;;;6094061;23;20017;-46
2022/03/08 03:32:04;;;;;;;29.42;15.43;;;;;;;;;;6094917;23;20595;-46
2022/03/08 03:34:30;;;;;;;30.05;15.95;;;;;;;;;;6093459;23;20543;-46
2022/03/08 03:36:55;;;;;;;25.55;16.08;;;;;;;;;;6095407;23;20025;-46
2022/03/08 03:39:20;;;;;;;27.33;15.60;;;;;;;;;;6092899;23;20011;-46
2022/03/08 03:41:46;;;;;;;26.95;15.38;;;;;;;;;;6095918;23;20029;-46
2022/03/08 03:44:11;;;;;;;26.00;16.25;;;;;;;;;;6093522;23;20015;-47
2022/03/08 03:46:36;;;;;;;28.13;16.48;;;;;;;;;;6095471;23;20010;-46
2022/03/08 03:49:02;;;;;;;25.15;14.75;;;;;;;;;;6093332;23;20022;-45
2022/03/08 03:51:27;;;;;;;24.15;14.73;;;;;;;;;;6094950;23;20018;-48
2022/03/08 03:53:52;;;;;;;27.50;15.73;;;;;;;;;;6093883;23;20018;-47
2022/03/08 03:56:17;;;;;;;32.85;18.13;;;;;;;;;;6094340;23;20067;-45
2022/03/08 03:58:43;;;;;;;30.98;16.75;;;;;;;;;;6093606;23;20015;-47
2022/03/08 04:01:08;;;;;;;30.77;16.17;;;;;;;;;;6093430;23;20019;-46
2022/03/08 04:03:33;;;;;;;29.75;17.27;;;;;;;;;;6094312;23;20006;-45
2022/03/08 04:05:59;;;;;;;32.03;17.02;;;;;;;;;;6096205;23;20022;-47
2022/03/08 04:08:24;;;;;;;26.73;15.68;;;;;;;;;;6094234;23;20010;-46
2022/03/08 04:10:50;;;;;;;26.35;15.88;;;;;;;;;;6096686;23;20042;-46
2022/03/08 04:13:16;;;;;;;26.67;15.15;;;;;;;;;;6094113;23;20018;-45
2022/03/08 04:15:41;;;;;;;28.75;16.00;;;;;;;;;;6097164;23;20165;-45
2022/03/08 04:18:07;;;;;;;30.23;16.23;;;;;;;;;;6093955;23;20034;-46
2022/03/08 04:20:32;;;;;;;24.52;13.82;;;;;;;;;;6070492;23;20030;-48
2022/03/08 04:22:57;;;;;;;27.67;15.45;;;;;;;;;;6094439;23;20074;-44
2022/03/08 04:25:23;;;;;;;30.25;15.90;;;;;;;;;;6097129;23;20192;-48
2022/03/08 04:27:48;;;;;;;30.45;15.77;;;;;;;;;;6096229;23;20014;-45
2022/03/08 04:30:13;;;;;;;35.67;17.02;;;;;;;;;;6095091;23;20049;-47
2022/03/08 04:32:39;;;;;;;27.17;14.90;;;;;;;;;;6093020;23;20054;-45
2022/03/08 04:35:05;;;;;;;26.70;15.15;;;;;;;;;;6096672;23;20082;-46
2022/03/08 04:37:30;;;;;;;29.50;15.77;;;;;;;;;;6094733;23;20599;-45
2022/03/08 04:39:55;;;;;;;33.42;16.45;;;;;;;;;;6095134;23;20010;-45
2022/03/08 04:42:21;;;;;;;36.60;17.40;;;;;;;;;;6095078;23;20073;-46
2022/03/08 04:44:46;;;;;;;30.65;16.38;;;;;;;;;;6097522;23;20018;-47
2022/03/08 04:47:12;;;;;;;32.25;15.25;;;;;;;;;;6094282;23;20022;-49
2022/03/08 04:49:37;;;;;;;31.63;15.68;;;;;;;;;;6096326;23;20316;-49
2022/03/08 04:52:02;;;;;;;31.67;14.95;;;;;;;;;;6095435;23;20014;-46
2022/03/08 04:54:27;;;;;;;28.88;16.08;;;;;;;;;;6096182;23;20085;-48
2022/03/08 04:56:53;;;;;;;30.40;15.13;;;;;;;;;;6095546;23;20011;-46
2022/03/08 04:59:18;;;;;;;30.27;16.13;;;;;;;;;;6097532;23;20029;-46
2022/03/08 05:01:44;;;;;;;39.53;18.40;;;;;;;;;;6094517;23;20022;-45
2022/03/08 05:04:10;;;;;;;32.03;16.05;;;;;;;;;;6096512;23;20011;-45
2022/03/08 05:06:35;;;;;;;35.90;16.85;;;;;;;;;;6093871;23;20014;-46
2022/03/08 05:09:00;;;;;;;35.90;18.13;;;;;;;;;;6069391;23;20020;-45
2022/03/08 05:11:25;;;;;;;33.22;15.57;;;;;;;;;;6093498;23;20019;-48
2022/03/08 05:13:51;;;;;;;30.38;15.82;;;;;;;;;;6096365;23;20029;-48
2022/03/08 05:16:16;;;;;;;35.92;15.82;;;;;;;;;;6092832;23;20050;-48
2022/03/08 05:18:41;;;;;;;33.35;16.23;;;;;;;;;;6096628;23;20014;-47
2022/03/08 05:21:06;;;;;;;32.30;15.52;;;;;;;;;;6093851;23;20026;-44
2022/03/08 05:23:32;;;;;;;29.85;16.83;;;;;;;;;;6096771;23;20025;-46
2022/03/08 05:25:57;;;;;;;28.05;15.57;;;;;;;;;;6093120;23;20015;-45
2022/03/08 05:28:22;;;;;;;34.78;15.63;;;;;;;;;;6095914;23;20022;-44
2022/03/08 05:30:48;;;;;;;25.83;15.00;;;;;;;;;;6094632;23;20024;-46
2022/03/08 05:33:13;;;;;;;27.08;15.05;;;;;;;;;;6094586;23;20349;-49
2022/03/08 05:35:38;;;;;;;32.20;17.05;;;;;;;;;;6096070;23;20509;-46
2022/03/08 05:38:04;;;;;;;31.23;16.48;;;;;;;;;;6092752;23;20070;-45
2022/03/08 05:40:29;;;;;;;28.98;16.58;;;;;;;;;;6069795;23;20014;-48
2022/03/08 05:42:55;;;;;;;29.15;16.55;;;;;;;;;;6093943;23;20038;-46
2022/03/08 05:45:20;;;;;;;31.30;16.85;;;;;;;;;;6094729;23;20023;-47
2022/03/08 05:47:45;;;;;;;32.92;15.13;;;;;;;;;;6093907;23;20034;-46
2022/03/08 05:50:11;;;;;;;30.92;16.55;;;;;;;;;;6094952;23;20082;-48
2022/03/08 05:52:37;;;;;;;30.73;16.30;;;;;;;;;;6069510;23;20062;-46
2022/03/08 05:55:04;;;;;;;37.40;19.05;;;;;;;;;;6094727;23;20100;-45
2022/03/08 05:57:30;;;;;;;26.70;16.05;;;;;;;;;;6095523;23;20025;-47
2022/03/08 05:59:55;;;;;;;29.05;16.25;;;;;;;;;;6094582;23;20794;-45
2022/03/08 06:02:23;;;;;;;36.33;16.52;;;;;;;;;;6094772;23;20092;-49
2022/03/08 06:04:49;;;;;;;37.28;18.35;;;;;;;;;;6094156;23;20017;-47
2022/03/08 06:07:14;;;;;;;29.90;17.23;;;;;;;;;;6092859;23;20014;-45
2022/03/08 06:09:39;;;;;;;31.35;17.77;;;;;;;;;;6095385;23;20014;-47
2022/03/08 06:12:05;;;;;;;29.52;18.15;;;;;;;;;;6093488;23;20026;-45
2022/03/08 06:14:30;;;;;;;34.42;17.60;;;;;;;;;;6095089;23;20053;-47
2022/03/08 06:16:56;;;;;;;32.05;17.05;;;;;;;;;;6093240;23;20927;-47
2022/03/08 06:19:21;;;;;;;34.42;16.83;;;;;;;;;;6070559;23;20015;-47
2022/03/08 06:21:47;;;;;;;30.95;16.77;;;;;;;;;;6093487;23;20408;-46
2022/03/08 06:24:13;;;;;;;30.52;16.67;;;;;;;;;;6094132;23;20033;-47
2022/03/08 06:26:38;;;;;;;39.35;18.42;;;;;;;;;;6093090;23;20038;-47
2022/03/08 06:29:04;;;;;;;32.42;16.70;;;;;;;;;;6094882;23;20377;-45
2022/03/08 06:31:29;;;;;;;31.00;16.20;;;;;;;;;;6092918;23;20037;-46
2022/03/08 06:33:54;;;;;;;31.02;16.90;;;;;;;;;;6094638;23;20223;-47
2022/03/08 06:36:20;;;;;;;32.03;17.45;;;;;;;;;;6093133;23;20046;-47
2022/03/08 06:38:45;;;;;;;32.00;16.05;;;;;;;;;;6095680;23;20015;-46
2022/03/08 06:41:10;;;;;;;36.22;18.45;;;;;;;;;;6092846;23;20075;-50
2022/03/08 06:43:36;;;;;;;36.53;16.70;;;;;;;;;;6095050;23;20914;-46
2022/03/08 06:46:01;;;;;;;33.15;18.38;;;;;;;;;;6093136;23;20022;-46
2022/03/08 06:48:26;;;;;;;37.72;19.30;;;;;;;;;;6094909;23;20018;-47
2022/03/08 06:50:51;;;;;;;34.45;18.45;;;;;;;;;;6092657;23;20018;-48
2022/03/08 06:53:17;;;;;;;37.63;19.38;;;;;;;;;;6090854;23;20015;-45
2022/03/08 06:55:42;;;;;;;31.92;18.80;;;;;;;;;;6092253;23;20117;-48
2022/03/08 06:58:07;;;;;;;39.50;18.83;;;;;;;;;;6092080;23;20029;-46
2022/03/08 07:00:33;;;;;;;41.92;19.00;;;;;;;;;;6090631;23;20018;-48
2022/03/08 07:02:58;;;;;;;35.58;18.70;;;;;;;;;;6091744;23;20034;-47
2022/03/08 07:05:23;;;;;;;36.88;19.95;;;;;;;;;;6065733;23;20018;-47
2022/03/08 07:07:49;;;;;;;33.97;18.48;;;;;;;;;;6091752;23;20014;-47
2022/03/08 07:10:14;;;;;;;34.33;17.73;;;;;;;;;;6089436;23;20010;-47
2022/03/08 07:12:41;;;;;;;35.17;19.88;;;;;;;;;;6093000;23;20014;-47
2022/03/08 07:15:07;;;;;;;39.08;18.60;;;;;;;;;;6089839;23;20095;-48
2022/03/08 07:17:32;;;;;;;35.55;17.88;;;;;;;;;;6092489;23;20014;-48
2022/03/08 07:19:58;;;;;;;36.38;18.33;;;;;;;;;;6064556;23;20032;-47
2022/03/08 07:22:23;;;;;;;38.47;20.42;;;;;;;;;;6093164;23;20018;-45
2022/03/08 07:24:48;;;;;;;35.92;21.23;;;;;;;;;;6090087;23;20094;-47
2022/03/08 07:27:14;;;;;;;35.72;17.90;;;;;;;;;;6091858;23;20010;-48
2022/03/08 07:29:39;;;;;;;38.55;19.50;;;;;;;;;;6089144;23;20011;-47
2022/03/08 07:32:04;;;;;;;40.55;20.27;;;;;;;;;;6089054;23;20022;-47
2022/03/08 07:34:30;;;;;;;39.65;20.77;;;;;;;;;;6091028;23;20036;-47
2022/03/08 07:36:55;;;;;;;38.28;19.95;;;;;;;;;;6064500;23;20010;-46
2022/03/08 07:39:20;;;;;;;36.50;19.80;;;;;;;;;;6092115;23;20023;-48
2022/03/08 07:41:45;;;;;;;42.33;19.92;;;;;;;;;;6092572;23;20051;-45
2022/03/08 07:44:11;;;;;;;41.42;19.15;;;;;;;;;;6093098;23;20010;-47
2022/03/08 07:46:36;;;;;;;38.88;19.95;;;;;;;;;;6093879;23;20077;-47
2022/03/08 07:49:02;;;;;;;31.75;18.80;;;;;;;;;;6093996;23;20015;-47
2022/03/08 07:51:27;;;;;;;38.30;19.05;;;;;;;;;;6093152;23;20011;-45
2022/03/08 07:53:52;;;;;;;46.25;19.65;;;;;;;;;;6092521;23;20026;-47
2022/03/08 07:56:17;;;;;;;42.38;22.45;;;;;;;;;;6093767;23;20034;-47
2022/03/08 07:58:43;;;;;;;37.03;20.52;;;;;;;;;;6095592;23;20014;-48
2022/03/08 08:01:08;;;;;;;41.72;21.23;;;;;;;;;;6096235;23;20022;-48
2022/03/08 08:03:33;;;;;;;40.15;21.63;;;;;;;;;;6070614;23;20015;-48
2022/03/08 08:05:59;;;;;;;39.92;21.77;;;;;;;;;;6094342;23;20073;-47
2022/03/08 08:08:24;;;;;;;41.35;19.58;;;;;;;;;;6094057;23;20075;-46
2022/03/08 08:10:49;;;;;;;37.45;19.38;;;;;;;;;;6096602;23;20129;-46
2022/03/08 08:13:15;;;;;;;39.67;19.38;;;;;;;;;;6095499;23;20021;-46
2022/03/08 08:15:41;;;;;;;45.25;19.58;;;;;;;;;;6097621;23;20022;-46
2022/03/08 08:18:07;;;;;;;37.28;19.45;;;;;;;;;;6067990;23;20022;-46
2022/03/08 08:20:32;;;;;;;44.53;19.98;;;;;;;;;;6096447;23;20722;-46
2022/03/08 08:22:57;;;;;;;36.80;20.13;;;;;;;;;;6094475;23;20315;-47
2022/03/08 08:25:23;;;;;;;40.38;20.17;;;;;;;;;;6093741;23;20525;-49
2022/03/08 08:27:48;;;;;;;41.42;20.98;;;;;;;;;;6096476;23;20018;-47
2022/03/08 08:30:14;;;;;;;44.40;21.08;;;;;;;;;;6093076;23;20493;-49
2022/03/08 08:32:39;;;;;;;44.50;21.30;;;;;;;;;;6096683;23;20010;-46
2022/03/08 08:35:05;;;;;;;36.83;19.48;;;;;;;;;;6069211;23;20037;-48
2022/03/08 08:37:30;;;;;;;35.33;20.02;;;;;;;;;;6090643;23;20074;-46
2022/03/08 08:39:56;;;;;;;42.35;21.85;;;;;;;;;;6090837;23;20466;-45
2022/03/08 08:42:21;;;;;;;40.90;19.23;;;;;;;;;;6089627;23;20026;-47
2022/03/08 08:44:46;;;;;;;41.53;19.65;;;;;;;;;;6092041;23;20030;-49
2022/03/08 08:47:12;;;;;;;33.33;18.23;;;;;;;;;;6092875;23;20015;-47
2022/03/08 08:49:37;;;;;;;37.25;20.30;;;;;;;;;;6087834;23;20019;-49
2022/03/08 08:52:03;;;;;;;39.42;20.55;;;;;;;;;;6091841;23;20019;-47
2022/03/08 08:54:28;;;;;;;41.95;19.65;;;;;;;;;;6092302;23;20034;-47
2022/03/08 08:56:53;;;;;;;42.90;20.67;;;;;;;;;;6089582;23;20014;-46
2022/03/08 08:59:18;;;;;;;37.13;19.55;;;;;;;;;;6065113;23;20069;-48
2022/03/08 09:01:44;;;;;;;42.30;19.92;;;;;;;;;;6084563;23;20010;-47
2022/03/08 09:04:09;;;;;;;45.30;21.50;;;;;;;;;;6090599;23;20021;-46
2022/03/08 09:06:35;;;;;;;42.95;20.10;;;;;;;;;;6063439;23;20020;-47
2022/03/08 09:09:00;;;;;;;46.17;19.15;;;;;;;;;;6088708;23;20054;-47
2022/03/08 09:11:26;;;;;;;38.75;20.02;;;;;;;;;;6092475;23;20379;-48
2022/03/08 09:13:52;;;;;;;39.15;19.58;;;;;;;;;;6083219;23;20014;-48
2022/03/08 09:16:17;;;;;;;44.80;21.83;;;;;;;;;;6085227;23;20026;-46
2022/03/08 09:18:43;;;;;;;37.05;19.60;;;;;;;;;;6079750;23;20032;-48
2022/03/08 09:21:10;;;;;;;40.35;20.88;;;;;;;;;;6081346;23;20396;-46
2022/03/08 09:23:36;;;;;;;43.55;20.48;;;;;;;;;;6066425;23;20002;-47
2022/03/08 09:26:01;;;;;;;48.03;22.48;;;;;;;;;;6091286;23;20026;-46
2022/03/08 09:28:26;;;;;;;35.80;20.17;;;;;;;;;;6092126;23;20069;-46
2022/03/08 09:30:52;;;;;;;39.67;20.42;;;;;;;;;;6089969;23;20022;-45
2022/03/08 09:33:17;;;;;;;29.27;18.45;;;;;;;;;;6091712;23;20021;-47
2022/03/08 09:35:42;;;;;;;41.10;21.23;;;;;;;;;;6093446;23;20053;-48
2022/03/08 09:38:11;;;;;;;35.40;18.25;;;;;;;;;;6092312;23;20025;-47
2022/03/08 09:40:36;;;;;;;41.35;20.42;;;;;;;;;;6090399;23;20073;-47
2022/03/08 09:43:02;;;;;;;43.30;20.50;;;;;;;;;;6091980;23;20018;-46
2022/03/08 09:45:27;;;;;;;36.28;19.17;;;;;;;;;;6089850;23;20011;-47
2022/03/08 09:47:53;;;;;;;36.50;18.40;;;;;;;;;;6089483;23;20018;-47
2022/03/08 09:50:18;;;;;;;43.30;20.05;;;;;;;;;;6091370;23;20034;-47
2022/03/08 09:52:43;;;;;;;38.28;20.13;;;;;;;;;;6092075;23;20029;-48
2022/03/08 09:55:11;;;;;;;36.72;19.17;;;;;;;;;;6091739;23;20077;-49
2022/03/08 09:57:36;;;;;;;45.40;20.95;;;;;;;;;;6087729;23;20018;-46
2022/03/08 10:00:02;;;;;;;41.22;20.08;;;;;;;;;;6066667;23;20018;-48
2022/03/08 10:02:40;;;;;;;33.63;18.05;;;;;;;;;;6084842;23;20014;-50
2022/03/08 10:05:06;;;;;;;34.92;19.90;;;;;;;;;;6061797;23;20057;-47
2022/03/08 10:07:31;;;;;;;43.33;22.33;;;;;;;;;;6092902;23;20014;-48
2022/03/08 10:09:57;;;;;;;35.35;19.50;;;;;;;;;;6090170;23;20335;-47
2022/03/08 10:12:23;;;;;;;33.17;20.45;;;;;;;;;;6090634;23;20082;-47
2022/03/08 10:14:48;;;;;;;44.72;21.73;;;;;;;;;;6091165;23;20030;-46
2022/03/08 10:17:52;;;;;;;38.10;19.58;;;;;;;;;;6064651;23;20025;-48
2022/03/08 10:20:28;;;;;;;36.90;19.55;;;;;;;;;;5944949;24;20557;-49
2022/03/08 10:22:54;;;;;;;39.90;21.17;;;;;;;;;;5947599;24;20024;-47
2022/03/08 10:25:20;;;;;;;34.65;18.10;;;;;;;;;;6022243;23;20022;-48
2022/03/08 10:27:52;;;;;;;32.70;18.92;;;;;;;;;;6091284;23;20010;-48
2022/03/08 10:30:17;;;;;;;35.85;18.80;;;;;;;;;;6088075;23;20022;-46
2022/03/08 10:32:43;;;;;;;38.50;19.13;;;;;;;;;;6095079;23;20025;-48
2022/03/08 10:35:09;;;;;;;39.83;19.00;;;;;;;;;;6066315;23;20022;-48
2022/03/08 10:37:36;;;;;;;34.72;19.23;;;;;;;;;;6094970;23;20589;-47
2022/03/08 10:40:04;;;;;;;33.90;18.40;;;;;;;;;;6091831;23;20086;-48
2022/03/08 10:42:30;;;;;;;37.15;18.98;;;;;;;;;;6094690;23;20057;-46
2022/03/08 10:45:08;;;;;;;39.58;19.60;;;;;;;;;;6068162;23;20014;-46
2022/03/08 10:47:45;;;;;;;32.25;18.92;;;;;;;;;;6092555;23;20022;-48
2022/03/08 10:50:11;;;;;;;33.75;17.52;;;;;;;;;;6094662;23;20018;-48
2022/03/08 10:52:38;;;;;;;40.08;18.73;;;;;;;;;;6094396;23;20014;-51
2022/03/08 10:55:10;;;;;;;36.15;18.83;;;;;;;;;;6094288;23;20516;-48
2022/03/08 10:57:36;;;;;;;29.48;17.65;;;;;;;;;;6089110;23;20017;-48
2022/03/08 11:00:08;;;;;;;37.28;19.27;;;;;;;;;;6093897;23;20038;-47
2022/03/08 11:02:33;;;;;;;31.80;17.05;;;;;;;;;;6087905;23;20029;-46
2022/03/08 11:05:09;;;;;;;35.78;18.73;;;;;;;;;;6091495;23;20022;-48
2022/03/08 11:07:38;;;;;;;34.33;19.15;;;;;;;;;;6093582;23;20011;-45
2022/03/08 11:10:03;;;;;;;36.83;17.77;;;;;;;;;;6090396;23;20563;-46
2022/03/08 11:12:29;;;;;;;38.55;18.17;;;;;;;;;;6094975;23;20023;-48
2022/03/08 11:14:54;;;;;;;33.15;17.58;;;;;;;;;;6093077;23;20033;-46
2022/03/08 11:17:20;;;;;;;41.97;19.17;;;;;;;;;;6094459;23;20050;-48
2022/03/08 11:19:48;;;;;;;35.15;17.40;;;;;;;;;;6092193;23;20778;-49
2022/03/08 11:22:14;;;;;;;37.42;18.05;;;;;;;;;;6094445;23;20014;-49
2022/03/08 11:24:39;;;;;;;43.90;20.45;;;;;;;;;;6092516;23;20018;-47
2022/03/08 11:27:05;;;;;;;31.85;17.27;;;;;;;;;;6095111;23;20018;-50
2022/03/08 11:29:30;;;;;;;28.90;16.45;;;;;;;;;;6092613;23;20014;-46
2022/03/08 11:31:58;;;;;;;35.13;16.30;;;;;;;;;;6095469;23;20621;-46
2022/03/08 11:34:33;;;;;;;33.15;16.27;;;;;;;;;;6091785;23;20094;-46
2022/03/08 11:37:03;;;;;;;37.95;17.60;;;;;;;;;;6094756;23;20214;-46
2022/03/08 11:39:30;;;;;;;33.42;17.13;;;;;;;;;;6093577;23;20070;-46
2022/03/08 11:42:18;;;;;;;27.65;15.88;;;;;;;;;;6069671;23;20046;-47
2022/03/08 11:44:54;;;;;;;27.20;16.33;;;;;;;;;;6095513;23;20030;-46
2022/03/08 11:47:20;;;;;;;32.28;17.63;;;;;;;;;;6093193;23;20018;-47
2022/03/08 11:49:53;;;;;;;31.17;16.15;;;;;;;;;;6094851;23;20018;-47
2022/03/08 11:52:19;;;;;;;38.33;17.55;;;;;;;;;;6093780;23;20023;-47
2022/03/08 11:55:02;;;;;;;32.42;17.15;;;;;;;;;;6069761;23;20022;-46
2022/03/08 11:57:46;;;;;;;34.22;15.95;;;;;;;;;;6065947;23;20018;-45
2022/03/08 12:00:34;;;;;;;30.20;15.55;;;;;;;;;;6093196;23;20025;-47
2022/03/08 12:03:02;;;;;;;33.50;16.20;;;;;;;;;;6094159;23;20026;-47
2022/03/08 12:05:46;;;;;;;35.58;15.52;;;;;;;;;;6094842;23;20007;-46
2022/03/08 12:08:27;;;;;;;25.10;14.82;;;;;;;;;;6068130;23;20014;-48
2022/03/08 12:11:00;;;;;;;31.88;14.82;;;;;;;;;;6093997;23;20022;-46
2022/03/08 12:13:35;;;;;;;29.00;16.10;;;;;;;;;;6093648;23;20038;-48
2022/03/08 12:16:08;;;;;;;30.95;16.20;;;;;;;;;;6094125;23;20432;-46
2022/03/08 12:18:34;;;;;;;28.00;15.25;;;;;;;;;;6095065;23;20024;-49
2022/03/08 12:21:19;;;;;;;25.15;13.98;;;;;;;;;;6093291;23;20022;-46
2022/03/08 12:23:47;;;;;;;29.77;14.35;;;;;;;;;;6095747;23;20011;-46
2022/03/08 12:26:23;;;;;;;28.60;15.13;;;;;;;;;;6094298;23;20018;-46
2022/03/08 12:29:06;;;;;;;29.00;14.90;;;;;;;;;;6096810;23;20015;-47
2022/03/08 12:31:33;;;;;;;26.38;15.25;;;;;;;;;;6071052;23;20456;-48
2022/03/08 12:34:02;;;;;;;31.05;15.35;;;;;;;;;;6094513;23;20030;-47
2022/03/08 12:36:27;;;;;;;26.00;14.07;;;;;;;;;;6071650;23;20038;-47
2022/03/08 12:38:53;;;;;;;29.02;14.30;;;;;;;;;;6093895;23;20275;-45
2022/03/08 12:41:23;;;;;;;27.92;14.20;;;;;;;;;;6092312;23;20363;-48
2022/03/08 12:43:56;;;;;;;25.95;14.55;;;;;;;;;;6070972;23;20675;-47
2022/03/08 12:46:22;;;;;;;24.90;13.73;;;;;;;;;;6092644;23;20018;-45
2022/03/08 12:48:48;;;;;;;25.20;14.02;;;;;;;;;;6070209;23;20024;-45
2022/03/08 12:51:13;;;;;;;24.05;12.88;;;;;;;;;;6089315;23;20014;-48
2022/03/08 12:53:40;;;;;;;30.27;15.45;;;;;;;;;;6089468;23;20011;-46
2022/03/08 12:56:14;;;;;;;26.77;14.10;;;;;;;;;;6090966;23;20030;-49
2022/03/08 12:58:40;;;;;;;31.63;13.80;;;;;;;;;;6090937;23;20062;-46
2022/03/08 13:01:09;;;;;;;23.67;12.77;;;;;;;;;;6091653;23;20042;-48
2022/03/08 13:03:35;;;;;;;24.85;13.77;;;;;;;;;;6089997;23;20067;-46
2022/03/08 13:06:02;;;;;;;31.90;13.55;;;;;;;;;;6091813;23;20822;-47
2022/03/08 13:08:29;;;;;;;22.60;13.13;;;;;;;;;;6089847;23;20010;-48
2022/03/08 13:10:58;;;;;;;29.67;12.75;;;;;;;;;;6091926;23;20019;-48
2022/03/08 13:13:24;;;;;;;28.90;13.82;;;;;;;;;;6089432;23;20014;-46
2022/03/08 13:15:49;;;;;;;26.02;14.02;;;;;;;;;;6092149;23;20057;-47
2022/03/08 13:18:24;;;;;;;29.40;14.77;;;;;;;;;;6089395;23;20015;-46
2022/03/08 13:20:51;;;;;;;26.70;13.15;;;;;;;;;;6092862;23;20019;-46
2022/03/08 13:23:18;;;;;;;24.30;13.15;;;;;;;;;;6060915;23;20018;-47
2022/03/08 13:25:45;;;;;;;21.85;12.77;;;;;;;;;;6092317;23;20019;-47
2022/03/08 13:28:14;;;;;;;26.98;13.40;;;;;;;;;;6091208;23;20042;-45
2022/03/08 13:30:40;;;;;;;23.50;12.77;;;;;;;;;;6092649;23;20499;-48
2022/03/08 13:33:12;;;;;;;21.40;13.60;;;;;;;;;;6090790;23;20619;-48
2022/03/08 13:35:39;;;;;;;24.10;13.40;;;;;;;;;;6065953;23;20370;-48
2022/03/08 13:38:04;;;;;;;22.73;13.02;;;;;;;;;;6093345;23;20640;-47
2022/03/08 13:40:32;;;;;;;30.33;13.85;;;;;;;;;;6094372;23;20146;-48
2022/03/08 13:42:59;;;;;;;21.10;12.43;;;;;;;;;;6093617;23;20014;-47
2022/03/08 13:45:24;;;;;;;25.20;14.85;;;;;;;;;;6093994;23;20477;-49
2022/03/08 13:47:52;;;;;;;27.13;13.98;;;;;;;;;;6093668;23;20329;-47
2022/03/08 13:50:21;;;;;;;24.67;13.90;;;;;;;;;;6067151;23;20066;-48
2022/03/08 13:52:51;;;;;;;23.23;13.35;;;;;;;;;;6095622;23;20014;-48
2022/03/08 13:55:16;;;;;;;27.55;14.00;;;;;;;;;;6093191;23;20022;-47
2022/03/08 13:58:01;;;;;;;24.20;13.85;;;;;;;;;;6096803;23;20010;-46
2022/03/08 14:00:27;;;;;;;24.85;13.63;;;;;;;;;;6093651;23;20642;-46
2022/03/08 14:02:53;;;;;;;25.80;13.48;;;;;;;;;;6095901;23;20078;-47
2022/03/08 14:05:19;;;;;;;21.23;12.43;;;;;;;;;;6093019;23;20034;-45
2022/03/08 14:07:53;;;;;;;29.27;14.63;;;;;;;;;;6096238;23;20021;-47
2022/03/08 14:10:20;;;;;;;23.73;13.90;;;;;;;;;;6094122;23;20019;-46
2022/03/08 14:12:46;;;;;;;29.38;14.57;;;;;;;;;;6095142;23;20014;-46